Time;durP1;ratioP1;P1;durP2;ratioP2;P2;SDS_P1;SDS_P2;PMS_P1;PMS_P2;Temp;Humidity;BMP_temperature;BMP_pressure;BME280_temperature;BME280_humidity;BME280_pressure;Samples;Min_cycle;Max_cycle;Signal;HPM_P1;HPM_P2
2023/04/15 00:00:17;;;;;;;12.48;5.85;;;;;;;;;;4932049;29;20040;-81
2023/04/15 00:02:45;;;;;;;9.43;4.47;;;;;;;;;;4940707;29;20032;-81
2023/04/15 00:05:11;;;;;;;7.55;4.80;;;;;;;;;;4937297;29;20391;-81
2023/04/15 00:07:37;;;;;;;9.95;5.07;;;;;;;;;;4921201;29;20495;-81
2023/04/15 00:10:04;;;;;;;11.25;5.00;;;;;;;;;;4935668;29;20035;-81
2023/04/15 00:12:30;;;;;;;7.70;4.53;;;;;;;;;;4940188;29;20024;-80
2023/04/15 00:14:57;;;;;;;11.77;5.93;;;;;;;;;;4939830;29;20024;-80
2023/04/15 00:17:23;;;;;;;9.98;5.03;;;;;;;;;;4923464;29;20084;-80
2023/04/15 00:19:49;;;;;;;9.93;4.78;;;;;;;;;;4920904;29;20503;-81
2023/04/15 00:22:16;;;;;;;11.23;4.68;;;;;;;;;;4919091;29;20102;-81
2023/04/15 00:24:43;;;;;;;12.50;4.80;;;;;;;;;;4931340;29;20062;-81
2023/04/15 00:27:09;;;;;;;9.65;5.28;;;;;;;;;;4939578;29;20038;-80
2023/04/15 00:29:35;;;;;;;12.98;5.45;;;;;;;;;;4922026;29;20042;-80
2023/04/15 00:32:01;;;;;;;13.23;5.85;;;;;;;;;;4920648;29;20110;-81
2023/04/15 00:34:27;;;;;;;11.00;5.18;;;;;;;;;;4921156;29;20024;-81
2023/04/15 00:36:53;;;;;;;9.85;4.97;;;;;;;;;;4939578;29;20032;-80
2023/04/15 00:39:20;;;;;;;8.60;5.82;;;;;;;;;;4924508;29;20515;-80
2023/04/15 00:41:46;;;;;;;10.30;5.32;;;;;;;;;;4920521;29;20539;-80
2023/04/15 00:44:35;;;;;;;10.05;5.00;;;;;;;;;;4920062;29;20031;-80
2023/04/15 00:47:09;;;;;;;7.18;4.65;;;;;;;;;;4931730;29;20038;-80
2023/04/15 00:49:35;;;;;;;6.72;4.15;;;;;;;;;;4939296;29;20435;-80
2023/04/15 00:52:01;;;;;;;9.77;4.93;;;;;;;;;;4939218;29;20032;-80
2023/04/15 00:54:29;;;;;;;7.70;4.43;;;;;;;;;;4939192;29;20034;-80
2023/04/15 00:56:55;;;;;;;9.38;4.80;;;;;;;;;;4929268;29;20039;-80
2023/04/15 00:59:21;;;;;;;11.23;4.63;;;;;;;;;;4933149;29;20032;-80
2023/04/15 01:01:47;;;;;;;7.72;4.53;;;;;;;;;;4939020;29;20032;-80
2023/04/15 01:04:13;;;;;;;9.80;4.85;;;;;;;;;;4938842;29;20100;-80
2023/04/15 01:06:39;;;;;;;8.77;4.60;;;;;;;;;;4939400;29;20036;-80
2023/04/15 01:09:05;;;;;;;10.10;4.97;;;;;;;;;;4938836;29;20039;-80
2023/04/15 01:11:33;;;;;;;14.25;5.03;;;;;;;;;;4938926;29;20107;-80
2023/04/15 01:13:59;;;;;;;9.63;4.78;;;;;;;;;;4939242;29;20020;-80
2023/04/15 01:16:27;;;;;;;10.02;4.32;;;;;;;;;;4905333;29;20060;-80
2023/04/15 01:18:53;;;;;;;9.00;5.05;;;;;;;;;;4894162;29;20017;-80
2023/04/15 01:21:20;;;;;;;10.27;4.38;;;;;;;;;;4882532;29;20029;-80
2023/04/15 01:23:47;;;;;;;10.93;5.00;;;;;;;;;;4887672;29;20480;-80
2023/04/15 01:26:13;;;;;;;12.93;4.88;;;;;;;;;;4892709;29;20056;-80
2023/04/15 01:29:02;;;;;;;12.32;5.00;;;;;;;;;;4882812;29;20029;-80
2023/04/15 01:31:28;;;;;;;14.95;5.55;;;;;;;;;;4880509;29;20039;-80
2023/04/15 01:33:54;;;;;;;10.48;4.97;;;;;;;;;;4881986;29;20081;-80
2023/04/15 01:36:20;;;;;;;11.20;5.13;;;;;;;;;;4898309;29;20040;-80
2023/04/15 01:38:46;;;;;;;9.85;5.25;;;;;;;;;;4893410;29;20063;-81
2023/04/15 01:41:16;;;;;;;8.98;5.38;;;;;;;;;;4900692;29;20028;-81
2023/04/15 01:43:42;;;;;;;10.77;5.85;;;;;;;;;;4884620;29;20116;-80
2023/04/15 01:46:08;;;;;;;11.90;5.60;;;;;;;;;;4900648;29;20040;-80
2023/04/15 01:48:34;;;;;;;14.90;6.38;;;;;;;;;;4900669;29;20032;-80
2023/04/15 01:51:00;;;;;;;11.25;5.55;;;;;;;;;;4900638;29;20049;-80
2023/04/15 01:53:26;;;;;;;13.60;6.10;;;;;;;;;;4900124;29;20029;-80
2023/04/15 01:55:52;;;;;;;12.68;6.00;;;;;;;;;;4899611;29;20092;-80
2023/04/15 01:58:18;;;;;;;15.13;6.10;;;;;;;;;;4897920;29;20443;-80
2023/04/15 02:00:44;;;;;;;11.13;6.47;;;;;;;;;;4899078;29;20412;-80
2023/04/15 02:03:10;;;;;;;10.95;6.30;;;;;;;;;;4899408;29;20033;-80
2023/04/15 02:05:36;;;;;;;11.50;6.78;;;;;;;;;;4899155;29;20033;-80
2023/04/15 02:08:02;;;;;;;10.93;6.05;;;;;;;;;;4897801;29;20040;-80
2023/04/15 02:10:54;;;;;;;15.52;7.32;;;;;;;;;;4899047;29;20032;-80
2023/04/15 02:13:29;;;;;;;12.27;6.72;;;;;;;;;;4898946;29;20053;-80
2023/04/15 02:15:55;;;;;;;14.50;6.88;;;;;;;;;;4908327;29;20155;-80
2023/04/15 02:18:21;;;;;;;13.85;7.10;;;;;;;;;;4918036;29;20103;-80
2023/04/15 02:20:47;;;;;;;14.10;6.35;;;;;;;;;;4900816;29;20056;-80
2023/04/15 02:23:13;;;;;;;11.85;6.57;;;;;;;;;;4917854;29;20028;-80
2023/04/15 02:25:39;;;;;;;12.65;6.53;;;;;;;;;;4917661;29;20391;-80
2023/04/15 02:28:05;;;;;;;15.52;7.18;;;;;;;;;;4917964;29;20031;-80
2023/04/15 02:30:32;;;;;;;12.35;6.10;;;;;;;;;;4928691;29;20039;-80
2023/04/15 02:32:58;;;;;;;11.90;6.75;;;;;;;;;;4936775;29;20363;-80
2023/04/15 02:35:24;;;;;;;16.45;7.60;;;;;;;;;;4919504;29;20103;-80
2023/04/15 02:37:51;;;;;;;17.92;7.57;;;;;;;;;;4917996;29;20464;-80
2023/04/15 02:40:17;;;;;;;14.80;8.02;;;;;;;;;;4917494;29;20024;-80
2023/04/15 02:42:43;;;;;;;13.35;7.50;;;;;;;;;;4900731;29;20039;-80
2023/04/15 02:45:10;;;;;;;12.32;6.30;;;;;;;;;;4917447;29;20029;-80
2023/04/15 02:47:40;;;;;;;17.65;7.47;;;;;;;;;;4917689;29;20024;-80
2023/04/15 02:50:08;;;;;;;14.23;6.18;;;;;;;;;;4918042;29;20151;-80
2023/04/15 02:52:34;;;;;;;15.15;7.63;;;;;;;;;;4918440;29;20020;-80
2023/04/15 02:55:14;;;;;;;16.90;8.35;;;;;;;;;;4918174;29;20020;-80
2023/04/15 02:57:51;;;;;;;9.98;5.40;;;;;;;;;;4934921;29;20043;-80
2023/04/15 03:00:17;;;;;;;12.48;6.80;;;;;;;;;;4924379;29;20498;-81
2023/04/15 03:02:43;;;;;;;13.40;6.70;;;;;;;;;;4918405;29;20029;-80
2023/04/15 03:05:13;;;;;;;13.00;7.43;;;;;;;;;;4917421;29;20123;-80
2023/04/15 03:07:42;;;;;;;14.73;7.83;;;;;;;;;;4917577;29;20032;-80
2023/04/15 03:10:09;;;;;;;14.73;8.45;;;;;;;;;;4917417;29;20040;-80
2023/04/15 03:12:35;;;;;;;13.65;8.15;;;;;;;;;;4917592;29;20056;-80
2023/04/15 03:15:01;;;;;;;11.68;6.90;;;;;;;;;;4916643;29;20055;-80
2023/04/15 03:17:27;;;;;;;13.23;7.40;;;;;;;;;;4917394;29;20040;-80
2023/04/15 03:19:53;;;;;;;15.63;7.57;;;;;;;;;;4917299;29;20039;-80
2023/04/15 03:22:19;;;;;;;14.30;8.38;;;;;;;;;;4900118;29;20028;-80
2023/04/15 03:24:45;;;;;;;16.20;8.65;;;;;;;;;;4931359;29;20040;-79
2023/04/15 03:27:12;;;;;;;14.90;7.45;;;;;;;;;;4936095;29;20038;-80
2023/04/15 03:29:38;;;;;;;13.70;7.40;;;;;;;;;;4936681;29;20482;-80
2023/04/15 03:32:04;;;;;;;14.10;7.30;;;;;;;;;;4937284;29;20043;-80
2023/04/15 03:34:30;;;;;;;13.32;7.15;;;;;;;;;;4937295;29;20100;-79
2023/04/15 03:37:34;;;;;;;12.15;7.13;;;;;;;;;;4930405;29;20083;-80
2023/04/15 03:40:00;;;;;;;12.90;7.40;;;;;;;;;;4900943;29;20047;-81
2023/04/15 03:42:26;;;;;;;16.67;8.63;;;;;;;;;;4917506;29;20024;-81
2023/04/15 03:44:52;;;;;;;12.63;7.85;;;;;;;;;;4917270;29;20052;-78
2023/04/15 03:47:18;;;;;;;15.75;7.97;;;;;;;;;;4917151;29;20478;-78
2023/04/15 03:49:44;;;;;;;15.80;8.20;;;;;;;;;;4916989;29;20032;-78
2023/04/15 03:52:20;;;;;;;15.57;7.93;;;;;;;;;;4900462;29;20443;-78
2023/04/15 03:54:46;;;;;;;15.88;8.25;;;;;;;;;;4921026;29;20035;-78
2023/04/15 03:57:12;;;;;;;15.32;8.40;;;;;;;;;;4921076;29;20576;-78
2023/04/15 03:59:38;;;;;;;13.35;7.85;;;;;;;;;;4920806;29;20127;-79
2023/04/15 04:02:04;;;;;;;16.35;8.10;;;;;;;;;;4921580;29;20451;-79
2023/04/15 04:04:30;;;;;;;13.45;7.35;;;;;;;;;;4921576;29;20032;-78
2023/04/15 04:06:56;;;;;;;14.25;8.63;;;;;;;;;;4921475;29;20036;-78
2023/04/15 04:09:22;;;;;;;15.52;8.18;;;;;;;;;;4921751;29;20032;-78
2023/04/15 04:11:48;;;;;;;14.98;7.82;;;;;;;;;;4921392;29;20091;-79
2023/04/15 04:14:14;;;;;;;14.95;8.75;;;;;;;;;;4903477;29;20032;-78
2023/04/15 04:16:40;;;;;;;14.32;8.10;;;;;;;;;;4929370;29;20055;-78
2023/04/15 04:19:06;;;;;;;17.10;8.82;;;;;;;;;;4940000;29;20024;-78
2023/04/15 04:21:33;;;;;;;18.65;9.40;;;;;;;;;;4938277;29;20028;-78
2023/04/15 04:23:59;;;;;;;16.85;8.82;;;;;;;;;;4953922;29;20028;-78
2023/04/15 04:26:25;;;;;;;17.33;8.77;;;;;;;;;;4939327;29;20391;-78
2023/04/15 04:28:51;;;;;;;14.90;8.32;;;;;;;;;;4939257;29;20027;-78
2023/04/15 04:31:18;;;;;;;16.52;8.40;;;;;;;;;;4939000;29;20028;-80
2023/04/15 04:33:50;;;;;;;13.13;7.97;;;;;;;;;;4954448;29;20035;-79
2023/04/15 04:36:38;;;;;;;15.23;7.32;;;;;;;;;;4939655;29;20688;-80
2023/04/15 04:39:04;;;;;;;14.90;8.13;;;;;;;;;;4937628;29;20031;-79
2023/04/15 04:41:31;;;;;;;14.18;8.00;;;;;;;;;;4932559;29;20152;-79
2023/04/15 04:43:57;;;;;;;13.98;8.25;;;;;;;;;;4937940;29;20423;-81
2023/04/15 04:46:23;;;;;;;11.48;6.90;;;;;;;;;;4923532;29;20084;-80
2023/04/15 04:48:49;;;;;;;14.48;7.78;;;;;;;;;;4923416;29;20019;-80
2023/04/15 04:51:15;;;;;;;15.60;7.80;;;;;;;;;;4938415;29;20039;-80
2023/04/15 04:53:42;;;;;;;16.65;8.50;;;;;;;;;;4938469;29;20106;-80
2023/04/15 04:56:08;;;;;;;16.75;8.27;;;;;;;;;;4921267;29;20079;-80
2023/04/15 04:58:34;;;;;;;14.10;7.95;;;;;;;;;;4938704;29;20600;-80
2023/04/15 05:01:01;;;;;;;16.10;7.70;;;;;;;;;;4934367;29;20024;-80
2023/04/15 05:03:27;;;;;;;14.27;7.63;;;;;;;;;;4918269;29;20059;-80
2023/04/15 05:05:53;;;;;;;13.73;7.63;;;;;;;;;;4926984;29;20054;-80
2023/04/15 05:08:20;;;;;;;16.05;8.93;;;;;;;;;;4938672;29;20030;-81
2023/04/15 05:10:46;;;;;;;15.65;8.45;;;;;;;;;;4937941;29;20111;-81
2023/04/15 05:13:12;;;;;;;14.23;8.13;;;;;;;;;;4938198;29;20032;-80
2023/04/15 05:15:40;;;;;;;14.25;7.80;;;;;;;;;;4937696;29;20059;-80
2023/04/15 05:18:06;;;;;;;15.70;8.43;;;;;;;;;;4938258;29;20111;-80
2023/04/15 05:20:50;;;;;;;14.23;8.50;;;;;;;;;;4932897;29;20032;-81
2023/04/15 05:23:23;;;;;;;13.98;8.15;;;;;;;;;;4919593;29;20028;-81
2023/04/15 05:25:50;;;;;;;15.20;8.60;;;;;;;;;;4902510;29;20067;-81
2023/04/15 05:28:16;;;;;;;14.35;8.30;;;;;;;;;;4902880;29;20111;-81
2023/04/15 05:30:42;;;;;;;13.00;8.38;;;;;;;;;;4918963;29;20036;-81
2023/04/15 05:33:08;;;;;;;13.63;8.18;;;;;;;;;;4918928;29;20028;-81
2023/04/15 05:35:34;;;;;;;14.75;8.82;;;;;;;;;;4918956;29;20789;-81
2023/04/15 05:38:00;;;;;;;16.40;8.35;;;;;;;;;;4902365;29;20032;-81
2023/04/15 05:40:27;;;;;;;17.88;9.23;;;;;;;;;;4919200;29;20471;-81
2023/04/15 05:42:53;;;;;;;13.00;8.15;;;;;;;;;;4919219;29;20479;-81
2023/04/15 05:45:19;;;;;;;15.32;8.48;;;;;;;;;;4901831;29;20039;-81
2023/04/15 05:47:45;;;;;;;14.27;7.72;;;;;;;;;;4919656;29;20685;-81
2023/04/15 05:50:11;;;;;;;13.43;8.18;;;;;;;;;;4920838;29;20079;-81
2023/04/15 05:52:37;;;;;;;12.25;7.63;;;;;;;;;;4904337;29;20024;-81
2023/04/15 05:55:03;;;;;;;14.60;8.60;;;;;;;;;;4937600;29;20035;-81
2023/04/15 05:57:29;;;;;;;12.70;7.82;;;;;;;;;;4920032;29;20475;-81
2023/04/15 05:59:56;;;;;;;13.98;8.35;;;;;;;;;;4913015;29;20039;-81
2023/04/15 06:02:22;;;;;;;13.32;7.93;;;;;;;;;;4928289;29;20028;-81
2023/04/15 06:04:59;;;;;;;14.55;7.82;;;;;;;;;;4920049;29;20046;-81
2023/04/15 06:10:29;;;;;;;10.50;5.63;;;;;;;;;;4920825;29;20394;-81
2023/04/15 06:12:55;;;;;;;15.75;8.80;;;;;;;;;;4930564;29;20024;-81
2023/04/15 06:15:21;;;;;;;15.48;8.68;;;;;;;;;;4919250;29;20799;-81
2023/04/15 06:18:06;;;;;;;14.52;8.60;;;;;;;;;;4936552;29;20063;-82
2023/04/15 06:20:32;;;;;;;14.77;8.55;;;;;;;;;;4935749;29;20530;-82
2023/04/15 06:22:59;;;;;;;15.23;9.10;;;;;;;;;;4937057;29;20063;-81
2023/04/15 06:25:25;;;;;;;13.00;7.13;;;;;;;;;;4933022;29;20020;-82
2023/04/15 06:27:51;;;;;;;11.95;7.65;;;;;;;;;;4936721;29;20083;-81
2023/04/15 06:30:17;;;;;;;10.98;7.40;;;;;;;;;;4936702;29;20502;-82
2023/04/15 06:32:43;;;;;;;12.35;7.30;;;;;;;;;;4933575;29;20031;-82
2023/04/15 06:35:09;;;;;;;10.05;6.53;;;;;;;;;;4917437;29;20103;-81
2023/04/15 06:37:35;;;;;;;13.38;7.45;;;;;;;;;;4916329;29;20047;-81
2023/04/15 06:40:03;;;;;;;7.93;4.60;;;;;;;;;;4917890;29;20039;-82
2023/04/15 06:42:29;;;;;;;10.02;6.25;;;;;;;;;;4917726;29;20035;-82
2023/04/15 06:44:55;;;;;;;10.88;6.10;;;;;;;;;;4917649;29;20032;-82
2023/04/15 06:47:21;;;;;;;13.18;4.75;;;;;;;;;;4917560;29;20107;-82
2023/04/15 06:49:53;;;;;;;6.43;4.35;;;;;;;;;;4919850;29;21988;-82
2023/04/15 06:52:19;;;;;;;8.13;5.00;;;;;;;;;;4919450;29;20482;-82
2023/04/15 06:54:45;;;;;;;9.10;5.50;;;;;;;;;;4936316;29;20475;-82
2023/04/15 06:57:11;;;;;;;8.93;5.97;;;;;;;;;;4936983;29;20114;-82
2023/04/15 06:59:37;;;;;;;8.25;4.88;;;;;;;;;;4936489;29;20066;-82
2023/04/15 07:02:03;;;;;;;9.25;5.40;;;;;;;;;;4936411;29;20406;-82
2023/04/15 07:04:29;;;;;;;10.18;4.55;;;;;;;;;;4936574;29;20027;-82
2023/04/15 07:06:55;;;;;;;10.00;5.57;;;;;;;;;;4936419;29;20408;-82
2023/04/15 07:09:24;;;;;;;8.80;5.03;;;;;;;;;;4936546;29;20452;-82
2023/04/15 07:11:50;;;;;;;7.65;4.68;;;;;;;;;;4931271;29;20490;-82
2023/04/15 07:14:16;;;;;;;11.05;6.05;;;;;;;;;;4918939;29;20060;-82
2023/04/15 07:16:42;;;;;;;11.40;6.47;;;;;;;;;;4917429;29;20056;-82
2023/04/15 07:19:08;;;;;;;9.40;5.57;;;;;;;;;;4935658;29;20035;-82
2023/04/15 07:21:34;;;;;;;10.52;5.85;;;;;;;;;;4936601;29;20099;-82
2023/04/15 07:24:00;;;;;;;10.82;5.90;;;;;;;;;;4936230;29;20372;-82
2023/04/15 07:26:26;;;;;;;10.52;6.57;;;;;;;;;;4935510;29;20034;-82
2023/04/15 07:28:52;;;;;;;10.68;5.68;;;;;;;;;;4939197;29;20024;-82
2023/04/15 07:31:33;;;;;;;7.95;4.90;;;;;;;;;;4940617;29;20103;-82
2023/04/15 07:33:59;;;;;;;9.93;5.20;;;;;;;;;;4940903;29;20492;-82
2023/04/15 07:36:25;;;;;;;11.73;6.30;;;;;;;;;;4940816;29;20071;-82
2023/04/15 07:38:51;;;;;;;11.75;6.63;;;;;;;;;;4940395;29;20035;-82
2023/04/15 07:41:18;;;;;;;10.88;7.18;;;;;;;;;;4937073;29;20063;-82
2023/04/15 07:43:44;;;;;;;10.35;6.43;;;;;;;;;;4919821;29;20047;-82
2023/04/15 07:46:10;;;;;;;11.40;6.85;;;;;;;;;;4940017;29;20604;-82
2023/04/15 07:48:36;;;;;;;10.23;7.25;;;;;;;;;;4940664;29;20028;-82
2023/04/15 07:51:02;;;;;;;11.57;6.90;;;;;;;;;;4940430;29;20407;-82
2023/04/15 07:53:28;;;;;;;8.60;5.00;;;;;;;;;;4940329;29;20464;-82
2023/04/15 07:55:54;;;;;;;8.93;5.07;;;;;;;;;;4939457;29;20027;-82
2023/04/15 07:58:20;;;;;;;10.02;6.57;;;;;;;;;;4937905;29;20032;-82
2023/04/15 08:00:46;;;;;;;11.73;6.93;;;;;;;;;;4939092;29;20101;-82
2023/04/15 08:03:12;;;;;;;11.35;7.20;;;;;;;;;;4939100;29;20482;-82
2023/04/15 08:05:38;;;;;;;7.97;4.78;;;;;;;;;;4938952;29;20028;-82
2023/04/15 08:08:04;;;;;;;6.60;3.85;;;;;;;;;;4937785;29;20056;-82
2023/04/15 08:10:30;;;;;;;7.60;4.15;;;;;;;;;;4939090;29;20464;-82
2023/04/15 08:12:56;;;;;;;5.32;3.58;;;;;;;;;;4937947;29;20035;-83
2023/04/15 08:15:22;;;;;;;7.88;5.18;;;;;;;;;;4918718;29;20024;-83
2023/04/15 08:18:12;;;;;;;5.55;3.33;;;;;;;;;;4935543;29;20039;-82
2023/04/15 08:20:38;;;;;;;7.43;4.10;;;;;;;;;;4938951;29;20031;-82
2023/04/15 08:23:04;;;;;;;6.00;3.42;;;;;;;;;;4938717;29;20055;-82
2023/04/15 08:25:30;;;;;;;5.28;3.38;;;;;;;;;;4938963;29;20078;-82
2023/04/15 08:27:56;;;;;;;4.50;2.63;;;;;;;;;;4921923;29;20394;-82
2023/04/15 08:30:22;;;;;;;4.13;3.55;;;;;;;;;;4938911;29;20039;-82
2023/04/15 08:32:48;;;;;;;3.00;2.28;;;;;;;;;;4921790;29;20032;-82
2023/04/15 08:35:15;;;;;;;3.28;2.88;;;;;;;;;;4934927;29;20099;-82
2023/04/15 08:37:41;;;;;;;3.17;2.15;;;;;;;;;;4919325;29;20124;-83
2023/04/15 08:40:08;;;;;;;3.45;2.65;;;;;;;;;;4919616;29;20127;-82
2023/04/15 08:42:41;;;;;;;2.30;2.10;;;;;;;;;;4921598;29;20053;-82
2023/04/15 08:45:08;;;;;;;3.92;2.63;;;;;;;;;;4938738;29;20042;-82
2023/04/15 08:47:37;;;;;;;3.30;2.47;;;;;;;;;;4938603;29;20050;-82
2023/04/15 08:50:03;;;;;;;2.53;1.70;;;;;;;;;;4939382;29;20103;-83
2023/04/15 08:52:31;;;;;;;4.30;2.83;;;;;;;;;;4939079;29;20039;-83
2023/04/15 08:54:57;;;;;;;4.65;2.75;;;;;;;;;;4939282;29;20028;-82
2023/04/15 08:57:27;;;;;;;3.40;2.20;;;;;;;;;;4939017;29;20032;-83
2023/04/15 09:03:21;;;;;;;4.60;2.10;;;;;;;;;;4919808;29;20121;-83
2023/04/15 09:05:47;;;;;;;2.92;2.20;;;;;;;;;;4903001;29;20032;-82
2023/04/15 09:08:13;;;;;;;5.40;2.70;;;;;;;;;;4919431;29;20032;-83
2023/04/15 09:10:39;;;;;;;4.70;2.20;;;;;;;;;;4902698;29;20067;-83
2023/04/15 09:13:06;;;;;;;5.13;2.83;;;;;;;;;;4902084;29;20074;-82
2023/04/15 09:15:32;;;;;;;4.70;3.00;;;;;;;;;;4918457;29;20030;-82
2023/04/15 09:17:58;;;;;;;3.20;2.42;;;;;;;;;;4918824;29;20039;-82
2023/04/15 09:20:24;;;;;;;6.22;3.28;;;;;;;;;;4902316;29;20032;-83
2023/04/15 09:22:51;;;;;;;5.28;2.83;;;;;;;;;;4904803;29;20036;-83
2023/04/15 09:25:23;;;;;;;4.68;2.50;;;;;;;;;;4936293;29;20077;-82
2023/04/15 09:27:50;;;;;;;4.68;2.88;;;;;;;;;;4938200;29;20035;-81
2023/04/15 09:30:16;;;;;;;4.85;2.70;;;;;;;;;;4921375;29;20039;-81
2023/04/15 09:32:52;;;;;;;5.47;3.13;;;;;;;;;;4932910;29;20471;-83
2023/04/15 09:35:18;;;;;;;3.58;2.42;;;;;;;;;;4937757;29;20143;-83
2023/04/15 09:37:44;;;;;;;5.53;3.03;;;;;;;;;;4937768;29;20036;-83
2023/04/15 09:40:40;;;;;;;3.08;2.20;;;;;;;;;;4937682;29;20106;-83
2023/04/15 09:43:06;;;;;;;3.47;2.65;;;;;;;;;;4939641;29;20024;-83
2023/04/15 09:45:33;;;;;;;3.80;2.80;;;;;;;;;;4937661;29;20020;-83
2023/04/15 09:48:00;;;;;;;8.15;2.75;;;;;;;;;;4938100;29;20027;-83
2023/04/15 09:50:29;;;;;;;4.40;2.33;;;;;;;;;;4937576;29;20023;-83
2023/04/15 09:52:56;;;;;;;3.03;2.33;;;;;;;;;;4935988;29;20031;-83
2023/04/15 09:55:22;;;;;;;5.40;2.05;;;;;;;;;;4937868;29;20030;-83
2023/04/15 09:57:48;;;;;;;3.65;2.53;;;;;;;;;;4938276;29;20118;-83
2023/04/15 10:00:14;;;;;;;3.05;2.13;;;;;;;;;;4940585;29;20046;-83
2023/04/15 10:02:41;;;;;;;3.92;1.70;;;;;;;;;;4942277;29;20075;-83
2023/04/15 10:05:07;;;;;;;4.85;1.85;;;;;;;;;;4936777;29;20118;-83
2023/04/15 10:07:34;;;;;;;4.75;2.55;;;;;;;;;;4940378;29;20040;-83
2023/04/15 10:10:01;;;;;;;6.95;2.15;;;;;;;;;;4936896;29;20024;-83
2023/04/15 10:12:28;;;;;;;5.18;2.38;;;;;;;;;;4928072;29;20127;-82
2023/04/15 10:14:58;;;;;;;2.17;1.70;;;;;;;;;;4928188;29;20024;-82
2023/04/15 10:17:27;;;;;;;3.92;1.65;;;;;;;;;;4924867;29;20373;-82
2023/04/15 10:19:54;;;;;;;2.22;1.52;;;;;;;;;;4925404;29;20060;-82
2023/04/15 10:22:22;;;;;;;3.42;1.80;;;;;;;;;;4916839;29;20506;-82
2023/04/15 10:24:51;;;;;;;2.65;2.17;;;;;;;;;;4911548;29;20475;-80
2023/04/15 10:27:17;;;;;;;2.17;1.90;;;;;;;;;;4935975;29;20031;-81
2023/04/15 10:29:44;;;;;;;3.67;2.28;;;;;;;;;;4939766;29;20074;-81
2023/04/15 10:32:10;;;;;;;3.13;1.52;;;;;;;;;;4917128;29;20471;-80
2023/04/15 10:34:36;;;;;;;4.10;3.20;;;;;;;;;;4915827;29;20038;-81
2023/04/15 10:37:02;;;;;;;1.23;1.08;;;;;;;;;;4924285;29;20420;-80
2023/04/15 10:39:34;;;;;;;2.10;1.52;;;;;;;;;;4931525;29;20110;-82
2023/04/15 10:42:19;;;;;;;3.03;1.38;;;;;;;;;;4920438;29;20039;-81
2023/04/15 10:44:53;;;;;;;2.90;1.65;;;;;;;;;;4929035;29;20020;-82
2023/04/15 10:47:20;;;;;;;1.58;0.95;;;;;;;;;;4922031;29;20035;-81
2023/04/15 10:49:48;;;;;;;2.92;1.48;;;;;;;;;;4937947;29;20498;-82
2023/04/15 10:52:15;;;;;;;1.42;1.02;;;;;;;;;;4938898;29;20024;-82
2023/04/15 10:54:41;;;;;;;2.15;1.80;;;;;;;;;;4935302;29;20352;-82
2023/04/15 10:57:09;;;;;;;4.35;1.45;;;;;;;;;;4918429;29;20115;-81
2023/04/15 10:59:36;;;;;;;3.63;2.20;;;;;;;;;;4919709;29;20028;-82
2023/04/15 11:02:03;;;;;;;2.97;1.60;;;;;;;;;;4926182;29;20107;-82
2023/04/15 11:05:06;;;;;;;1.45;1.05;;;;;;;;;;4924083;29;20028;-82
2023/04/15 11:07:42;;;;;;;2.20;1.23;;;;;;;;;;4865909;29;20046;-80
2023/04/15 11:10:14;;;;;;;1.63;1.40;;;;;;;;;;4914986;29;20043;-80
2023/04/15 11:12:41;;;;;;;1.42;1.02;;;;;;;;;;4905684;29;20067;-82
2023/04/15 11:15:25;;;;;;;2.33;1.15;;;;;;;;;;4922986;29;20032;-82
2023/04/15 11:17:51;;;;;;;2.60;1.20;;;;;;;;;;4922350;29;20095;-82
2023/04/15 11:20:18;;;;;;;1.15;0.90;;;;;;;;;;4929902;29;20414;-81
2023/04/15 11:22:47;;;;;;;3.80;0.95;;;;;;;;;;4934308;29;20019;-82
2023/04/15 11:25:24;;;;;;;2.38;1.55;;;;;;;;;;4926280;29;20517;-81
2023/04/15 11:27:51;;;;;;;1.35;0.95;;;;;;;;;;4943324;29;20155;-82
2023/04/15 11:30:19;;;;;;;1.65;0.85;;;;;;;;;;4935266;29;21506;-82
2023/04/15 11:32:45;;;;;;;2.53;1.63;;;;;;;;;;4942497;29;20028;-82
2023/04/15 11:35:11;;;;;;;2.25;1.30;;;;;;;;;;4934304;29;20083;-82
2023/04/15 11:37:37;;;;;;;2.75;1.17;;;;;;;;;;4938472;29;20463;-82
2023/04/15 11:40:03;;;;;;;1.48;1.13;;;;;;;;;;4930814;29;20032;-82
2023/04/15 11:42:30;;;;;;;2.42;1.20;;;;;;;;;;4939086;29;20043;-80
2023/04/15 11:45:12;;;;;;;2.75;1.05;;;;;;;;;;4928988;29;20661;-80
2023/04/15 11:47:47;;;;;;;3.35;1.40;;;;;;;;;;4923950;29;20039;-80
2023/04/15 11:50:19;;;;;;;2.80;1.10;;;;;;;;;;4939398;29;20031;-80
2023/04/15 11:52:55;;;;;;;4.38;1.27;;;;;;;;;;4943313;29;20078;-80
2023/04/15 11:55:22;;;;;;;4.53;1.70;;;;;;;;;;4942938;29;20031;-80
2023/04/15 11:57:48;;;;;;;4.45;2.28;;;;;;;;;;4923185;29;20032;-80
2023/04/15 12:00:16;;;;;;;3.35;1.58;;;;;;;;;;4929823;29;20473;-82
2023/04/15 12:02:42;;;;;;;2.53;1.75;;;;;;;;;;4925016;29;20024;-82
2023/04/15 12:05:09;;;;;;;3.67;1.98;;;;;;;;;;4937737;29;20502;-82
2023/04/15 12:07:53;;;;;;;1.92;0.90;;;;;;;;;;4925798;29;20107;-82
2023/04/15 12:10:19;;;;;;;1.90;0.90;;;;;;;;;;4921826;29;20036;-82
2023/04/15 12:12:48;;;;;;;2.55;1.40;;;;;;;;;;4921475;29;20029;-82
2023/04/15 12:15:14;;;;;;;3.83;1.58;;;;;;;;;;4920279;29;20519;-82
2023/04/15 12:17:40;;;;;;;3.20;1.45;;;;;;;;;;4919353;29;20139;-82
2023/04/15 12:20:06;;;;;;;1.52;0.95;;;;;;;;;;4920689;29;20216;-82
2023/04/15 12:22:37;;;;;;;2.72;1.02;;;;;;;;;;4921427;29;20390;-80
2023/04/15 12:25:03;;;;;;;3.17;1.13;;;;;;;;;;4920901;29;20028;-81
2023/04/15 12:27:29;;;;;;;3.92;1.30;;;;;;;;;;4920792;29;20383;-80
2023/04/15 12:30:10;;;;;;;4.75;1.50;;;;;;;;;;4903521;29;20075;-81
2023/04/15 12:32:36;;;;;;;1.23;0.52;;;;;;;;;;4920717;29;20566;-81
2023/04/15 12:35:02;;;;;;;1.10;0.57;;;;;;;;;;4921083;29;20033;-81
2023/04/15 12:37:28;;;;;;;2.75;0.88;;;;;;;;;;4904284;29;20103;-80
2023/04/15 12:39:54;;;;;;;4.82;1.70;;;;;;;;;;4920958;29;20028;-81
2023/04/15 12:42:21;;;;;;;3.95;1.42;;;;;;;;;;4920974;29;20032;-82
2023/04/15 12:44:47;;;;;;;8.05;2.00;;;;;;;;;;4923108;29;20028;-81
2023/04/15 12:47:13;;;;;;;3.17;0.70;;;;;;;;;;4921860;29;20032;-79
2023/04/15 12:49:39;;;;;;;3.08;1.17;;;;;;;;;;4904144;29;20032;-78
2023/04/15 12:52:05;;;;;;;3.42;1.50;;;;;;;;;;4934650;29;20030;-78
2023/04/15 12:54:32;;;;;;;4.55;1.00;;;;;;;;;;4921605;29;20036;-78
2023/04/15 12:56:58;;;;;;;9.05;1.25;;;;;;;;;;4933576;29;20043;-80
2023/04/15 12:59:24;;;;;;;2.50;0.60;;;;;;;;;;4926117;29;20482;-80
2023/04/15 13:01:52;;;;;;;5.50;0.70;;;;;;;;;;4938633;29;20028;-80
2023/04/15 13:04:18;;;;;;;4.03;1.20;;;;;;;;;;4921686;29;20084;-80
2023/04/15 13:06:44;;;;;;;2.25;0.85;;;;;;;;;;4925534;29;20522;-80
2023/04/15 13:09:10;;;;;;;3.08;1.15;;;;;;;;;;4902925;29;20032;-80
2023/04/15 13:11:36;;;;;;;3.35;1.52;;;;;;;;;;4926947;29;20027;-80
2023/04/15 13:14:03;;;;;;;4.72;1.02;;;;;;;;;;4936599;29;20102;-80
2023/04/15 13:16:30;;;;;;;5.97;1.15;;;;;;;;;;4907656;29;20080;-80
2023/04/15 13:18:56;;;;;;;2.83;0.90;;;;;;;;;;4900476;29;20016;-80
2023/04/15 13:21:22;;;;;;;2.22;1.00;;;;;;;;;;4898962;29;20388;-80
2023/04/15 13:23:49;;;;;;;6.32;1.30;;;;;;;;;;4899105;29;20025;-80
2023/04/15 13:26:16;;;;;;;6.55;1.98;;;;;;;;;;4899392;29;20032;-80
2023/04/15 13:28:42;;;;;;;2.22;0.60;;;;;;;;;;4899936;29;20028;-80
2023/04/15 13:31:08;;;;;;;4.45;0.93;;;;;;;;;;4898893;29;20739;-80
2023/04/15 13:33:34;;;;;;;8.07;1.23;;;;;;;;;;4899963;29;20103;-78
2023/04/15 13:36:00;;;;;;;3.67;1.20;;;;;;;;;;4899830;29;20055;-78
2023/04/15 13:38:26;;;;;;;4.95;0.63;;;;;;;;;;4899854;29;20029;-79
2023/04/15 13:40:52;;;;;;;3.20;0.95;;;;;;;;;;4901999;29;20083;-79
2023/04/15 13:43:18;;;;;;;1.95;0.80;;;;;;;;;;4902422;29;20024;-78
2023/04/15 13:46:04;;;;;;;3.60;0.70;;;;;;;;;;4899479;29;20586;-78
2023/04/15 13:48:30;;;;;;;4.05;0.88;;;;;;;;;;4899617;29;20051;-78
2023/04/15 13:50:56;;;;;;;2.63;0.73;;;;;;;;;;4897996;29;20029;-78
2023/04/15 13:53:22;;;;;;;2.67;0.82;;;;;;;;;;4899268;29;20031;-78
2023/04/15 13:55:48;;;;;;;1.50;0.77;;;;;;;;;;4899581;29;20024;-78
2023/04/15 13:58:14;;;;;;;6.50;1.35;;;;;;;;;;4898184;29;20045;-78
2023/04/15 14:00:40;;;;;;;3.50;1.00;;;;;;;;;;4899331;29;20040;-79
2023/04/15 14:03:06;;;;;;;3.13;0.90;;;;;;;;;;4899839;29;20495;-78
2023/04/15 14:05:32;;;;;;;3.22;0.73;;;;;;;;;;4899275;29;20037;-78
2023/04/15 14:07:59;;;;;;;4.05;0.80;;;;;;;;;;4899021;29;20039;-79
2023/04/15 14:10:32;;;;;;;1.33;0.60;;;;;;;;;;4882489;29;20081;-78
2023/04/15 14:12:58;;;;;;;1.17;0.50;;;;;;;;;;4880570;29;20076;-78
2023/04/15 14:15:24;;;;;;;6.03;1.10;;;;;;;;;;4880080;29;20381;-78
2023/04/15 14:17:56;;;;;;;5.05;0.98;;;;;;;;;;4914528;29;20488;-78
2023/04/15 14:20:23;;;;;;;9.57;1.50;;;;;;;;;;4901003;29;20047;-78
2023/04/15 14:22:49;;;;;;;5.07;0.90;;;;;;;;;;4921076;29;20051;-79
2023/04/15 14:25:16;;;;;;;5.50;1.48;;;;;;;;;;4938173;29;20475;-79
2023/04/15 14:27:54;;;;;;;2.30;0.85;;;;;;;;;;4936763;29;20032;-79
2023/04/15 14:30:20;;;;;;;7.38;1.10;;;;;;;;;;4936483;29;20031;-78
2023/04/15 14:32:46;;;;;;;4.32;1.33;;;;;;;;;;4919529;29;20050;-78
2023/04/15 14:35:12;;;;;;;4.25;1.20;;;;;;;;;;4923408;29;20039;-78
2023/04/15 14:37:38;;;;;;;8.13;1.55;;;;;;;;;;4917451;29;20083;-78
2023/04/15 14:40:04;;;;;;;5.95;1.42;;;;;;;;;;4917715;29;20024;-78
2023/04/15 14:42:30;;;;;;;3.28;1.15;;;;;;;;;;4917532;29;20467;-78
2023/04/15 14:44:56;;;;;;;5.78;1.25;;;;;;;;;;4917423;29;20349;-77
2023/04/15 14:47:23;;;;;;;4.95;1.25;;;;;;;;;;4905966;29;20471;-80